Time;durP1;ratioP1;P1;durP2;ratioP2;P2;SDS_P1;SDS_P2;PMS_P1;PMS_P2;Temp;Humidity;BMP_temperature;BMP_pressure;BME280_temperature;BME280_humidity;BME280_pressure;Samples;Min_cycle;Max_cycle;Signal;HPM_P1;HPM_P2
2023/10/05 00:03:05;;;;;;;9.20;2.60;;;13.20;99.90;;;;;;4938400;28;20139;-57
2023/10/05 00:05:35;;;;;;;12.45;2.90;;;13.20;99.90;;;;;;4934023;28;20411;-57
2023/10/05 00:08:04;;;;;;;9.77;2.95;;;13.20;99.90;;;;;;4939433;28;20105;-58
2023/10/05 00:10:31;;;;;;;8.85;2.67;;;13.20;99.90;;;;;;4940232;28;20047;-59
2023/10/05 00:13:04;;;;;;;12.50;2.78;;;13.30;99.90;;;;;;4940037;28;20090;-57
2023/10/05 00:15:31;;;;;;;6.35;2.40;;;13.30;99.90;;;;;;4920623;28;20079;-57
2023/10/05 00:17:57;;;;;;;8.73;2.70;;;13.30;99.90;;;;;;4937503;28;21370;-59
2023/10/05 00:20:32;;;;;;;11.52;2.45;;;13.30;99.90;;;;;;4938055;28;20039;-58
2023/10/05 00:23:01;;;;;;;16.77;2.67;;;13.30;99.90;;;;;;4934283;28;20053;-57
2023/10/05 00:25:29;;;;;;;9.45;2.55;;;13.20;99.90;;;;;;4938735;28;20039;-58
2023/10/05 00:27:56;;;;;;;8.48;2.83;;;13.30;99.90;;;;;;4940474;28;20043;-60
2023/10/05 00:30:23;;;;;;;6.47;2.67;;;13.30;99.90;;;;;;4925602;28;20058;-58
2023/10/05 00:32:56;;;;;;;11.48;2.60;;;13.30;99.90;;;;;;4937188;28;20055;-59
2023/10/05 00:35:26;;;;;;;8.32;2.80;;;13.30;99.90;;;;;;4937012;28;20366;-57
2023/10/05 00:37:55;;;;;;;12.73;2.90;;;13.30;99.90;;;;;;4938172;28;20046;-58
2023/10/05 00:40:38;;;;;;;8.27;2.58;;;13.30;99.90;;;;;;4939106;28;20360;-58
2023/10/05 00:43:27;;;;;;;10.00;2.22;;;13.30;99.90;;;;;;4939841;28;20051;-57
2023/10/05 00:45:56;;;;;;;10.43;2.65;;;13.30;99.90;;;;;;4922490;29;20106;-58
2023/10/05 00:48:34;;;;;;;10.50;2.70;;;13.30;99.90;;;;;;4935648;28;20035;-56
2023/10/05 00:53:47;;;;;;;15.60;2.70;;;13.30;99.90;;;;;;4934427;28;20474;-58
2023/10/05 00:56:18;;;;;;;13.25;3.17;;;13.30;99.90;;;;;;4939000;28;21046;-57
2023/10/05 00:58:44;;;;;;;12.82;2.70;;;13.30;99.90;;;;;;4940134;28;20047;-58
2023/10/05 01:01:22;;;;;;;12.95;2.65;;;13.30;99.90;;;;;;4906508;28;20728;-57
2023/10/05 01:06:42;;;;;;;8.20;2.78;;;13.30;99.90;;;;;;4926400;28;20058;-59
2023/10/05 01:12:01;;;;;;;10.05;2.65;;;13.30;99.90;;;;;;4931878;28;20047;-58
2023/10/05 01:14:46;;;;;;;12.40;2.80;;;13.30;99.90;;;;;;4936463;28;20314;-58
2023/10/05 01:17:12;;;;;;;9.57;2.75;;;13.30;99.90;;;;;;4937465;28;20043;-58
2023/10/05 01:19:39;;;;;;;10.38;2.90;;;13.30;99.90;;;;;;4937275;28;20057;-58
2023/10/05 01:22:13;;;;;;;11.73;2.50;;;13.30;99.90;;;;;;4940101;28;20377;-58
2023/10/05 01:24:39;;;;;;;9.23;2.83;;;13.30;99.90;;;;;;4931895;28;20458;-55
2023/10/05 01:27:04;;;;;;;10.50;2.80;;;13.30;99.90;;;;;;4933469;28;20047;-57
2023/10/05 01:29:30;;;;;;;10.63;3.25;;;13.30;99.90;;;;;;4932291;28;20656;-57
2023/10/05 01:31:56;;;;;;;11.57;2.67;;;13.30;99.90;;;;;;4939874;28;20039;-58
2023/10/05 01:34:22;;;;;;;12.45;2.47;;;13.30;99.90;;;;;;4939724;28;20047;-57
2023/10/05 01:36:48;;;;;;;13.05;3.10;;;13.30;99.90;;;;;;4926531;29;20049;-59
2023/10/05 01:39:18;;;;;;;10.05;2.75;;;13.30;99.90;;;;;;4940744;28;20102;-59
2023/10/05 01:41:46;;;;;;;9.75;2.47;;;13.30;99.90;;;;;;4938849;28;20185;-57
2023/10/05 01:44:13;;;;;;;6.63;2.60;;;13.30;99.90;;;;;;4941271;28;20049;-59
2023/10/05 01:46:40;;;;;;;11.63;2.80;;;13.30;99.90;;;;;;4943093;28;20047;-58
2023/10/05 01:49:06;;;;;;;8.50;2.83;;;13.30;99.90;;;;;;4925038;29;20054;-55
2023/10/05 01:51:31;;;;;;;12.32;2.88;;;13.30;99.90;;;;;;4954355;28;20039;-58
2023/10/05 01:54:11;;;;;;;7.63;2.72;;;13.30;99.90;;;;;;4940839;28;20043;-58
2023/10/05 01:56:40;;;;;;;11.63;2.80;;;13.30;99.90;;;;;;4943778;28;20510;-59
2023/10/05 01:59:08;;;;;;;8.57;2.50;;;13.30;99.90;;;;;;4941606;28;20769;-57
2023/10/05 02:01:39;;;;;;;11.65;2.75;;;13.20;99.90;;;;;;4940041;28;20035;-60
2023/10/05 02:04:06;;;;;;;10.27;2.80;;;13.20;99.90;;;;;;4944031;28;20051;-59
2023/10/05 02:06:40;;;;;;;5.45;2.40;;;13.20;99.90;;;;;;4940205;28;20047;-59
2023/10/05 02:09:07;;;;;;;8.27;3.17;;;13.20;99.90;;;;;;4938213;28;20043;-59
2023/10/05 02:11:33;;;;;;;14.75;2.67;;;13.20;99.90;;;;;;4940021;28;20043;-57
2023/10/05 02:14:06;;;;;;;12.52;3.30;;;13.20;99.90;;;;;;4940674;28;20150;-60
2023/10/05 02:16:32;;;;;;;;;;;13.30;99.90;;;;;;4941141;28;20093;-59
2023/10/05 02:19:04;;;;;;;12.63;3.05;;;13.30;99.90;;;;;;4939413;28;19927;-58
2023/10/05 02:21:35;;;;;;;13.53;2.90;;;13.30;99.90;;;;;;4942847;28;20158;-57
2023/10/05 02:24:17;;;;;;;12.50;3.33;;;13.30;99.90;;;;;;4920384;28;20051;-58
2023/10/05 02:29:19;;;;;;;15.48;2.80;;;13.40;99.90;;;;;;4938377;28;20350;-58
2023/10/05 02:34:45;;;;;;;14.40;3.08;;;13.40;99.90;;;;;;4922393;29;20550;-57
2023/10/05 02:37:12;;;;;;;15.38;2.85;;;13.40;99.90;;;;;;4941583;28;20467;-59
2023/10/05 02:39:41;;;;;;;14.55;2.80;;;13.40;99.90;;;;;;4939700;28;20059;-59
2023/10/05 02:42:12;;;;;;;10.75;2.85;;;13.50;99.90;;;;;;4924821;28;20515;-60
2023/10/05 02:44:45;;;;;;;14.40;2.75;;;13.50;99.90;;;;;;4938861;28;20039;-55
2023/10/05 02:47:15;;;;;;;11.73;2.75;;;13.50;99.90;;;;;;4935845;28;20095;-56
2023/10/05 02:49:47;;;;;;;15.13;2.88;;;13.50;99.90;;;;;;4941137;28;20050;-58
2023/10/05 02:52:15;;;;;;;17.10;3.53;;;13.50;99.90;;;;;;4923505;29;20054;-54
2023/10/05 02:54:41;;;;;;;17.15;3.13;;;13.50;99.90;;;;;;4938239;28;20488;-59
2023/10/05 02:57:11;;;;;;;14.68;3.60;;;13.50;99.90;;;;;;4939098;28;20058;-58
2023/10/05 02:59:37;;;;;;;10.38;2.53;;;13.50;99.90;;;;;;4918136;28;20047;-57
2023/10/05 03:02:10;;;;;;;11.85;2.63;;;13.60;99.90;;;;;;4938464;28;20045;-58
2023/10/05 03:04:45;;;;;;;20.65;3.42;;;13.60;99.90;;;;;;4937603;28;20099;-58
2023/10/05 03:07:16;;;;;;;14.85;2.75;;;13.60;99.90;;;;;;4934781;28;20472;-57
2023/10/05 03:09:43;;;;;;;17.38;3.45;;;13.60;99.90;;;;;;4940638;28;20042;-59
2023/10/05 03:12:10;;;;;;;15.13;3.30;;;13.70;99.90;;;;;;4938396;28;20493;-59
2023/10/05 03:14:36;;;;;;;16.08;3.58;;;13.70;99.90;;;;;;4937693;28;20118;-58
2023/10/05 03:17:12;;;;;;;12.32;2.95;;;13.70;99.90;;;;;;4939530;28;20043;-59
2023/10/05 03:19:39;;;;;;;13.00;3.58;;;13.80;99.90;;;;;;4940218;28;20062;-57
2023/10/05 03:22:07;;;;;;;17.58;2.53;;;13.80;99.90;;;;;;4940247;28;20043;-57
2023/10/05 03:24:36;;;;;;;14.02;3.35;;;13.80;99.90;;;;;;4938508;28;20041;-59
2023/10/05 03:27:08;;;;;;;13.68;3.63;;;13.90;99.90;;;;;;4939091;28;20035;-59
2023/10/05 03:29:35;;;;;;;18.70;3.47;;;13.90;99.90;;;;;;4935995;28;20051;-58
2023/10/05 03:34:34;;;;;;;15.63;3.07;;;14.00;99.90;;;;;;4951158;28;20046;-57
2023/10/05 03:37:08;;;;;;;14.60;2.97;;;14.00;99.90;;;;;;4951684;28;20298;-58
2023/10/05 03:39:39;;;;;;;17.38;3.70;;;14.00;99.90;;;;;;4931899;28;20178;-60
2023/10/05 03:42:08;;;;;;;13.65;3.03;;;14.10;99.90;;;;;;4949848;28;20129;-60
2023/10/05 03:44:34;;;;;;;15.57;2.88;;;14.10;99.90;;;;;;4950405;28;20471;-58
2023/10/05 03:47:00;;;;;;;13.32;2.78;;;14.10;99.90;;;;;;4950105;28;20063;-60
2023/10/05 03:49:26;;;;;;;14.95;3.35;;;14.10;99.90;;;;;;4950782;28;20093;-57
2023/10/05 03:51:51;;;;;;;18.08;3.25;;;14.10;99.90;;;;;;4954536;28;20427;-60
2023/10/05 03:54:18;;;;;;;13.63;2.90;;;14.10;99.90;;;;;;4957595;28;20537;-59
2023/10/05 03:56:46;;;;;;;15.00;3.67;;;14.10;99.90;;;;;;4948569;28;20137;-56
2023/10/05 03:59:12;;;;;;;14.25;3.38;;;14.10;99.90;;;;;;4948244;28;20042;-57
2023/10/05 04:01:38;;;;;;;12.75;2.85;;;14.10;99.90;;;;;;4957351;28;20046;-59
2023/10/05 04:04:07;;;;;;;19.90;2.85;;;14.10;99.90;;;;;;4955850;28;20035;-57
2023/10/05 04:06:33;;;;;;;15.50;3.70;;;14.00;99.90;;;;;;4955805;28;20715;-57
2023/10/05 04:08:59;;;;;;;15.48;3.08;;;14.00;99.90;;;;;;4952043;28;20035;-56
2023/10/05 04:11:29;;;;;;;15.60;3.67;;;14.00;99.90;;;;;;4951212;28;21205;-57
2023/10/05 04:13:55;;;;;;;18.20;2.92;;;14.00;99.90;;;;;;4950625;28;20050;-57
2023/10/05 04:16:26;;;;;;;18.77;3.13;;;13.90;99.90;;;;;;4950944;28;20043;-57
2023/10/05 04:18:53;;;;;;;18.30;3.33;;;13.90;99.90;;;;;;4950658;28;20150;-58
2023/10/05 04:21:19;;;;;;;12.68;3.25;;;13.90;99.90;;;;;;4952449;28;20050;-58
2023/10/05 04:23:49;;;;;;;15.75;2.92;;;13.90;99.90;;;;;;4953466;28;20050;-57
2023/10/05 04:26:37;;;;;;;18.27;3.85;;;13.90;99.90;;;;;;4957818;28;20045;-57
2023/10/05 04:29:04;;;;;;;18.63;3.70;;;13.90;99.90;;;;;;4955156;28;20101;-58
2023/10/05 04:31:32;;;;;;;10.63;2.80;;;13.80;99.90;;;;;;4955817;28;20503;-58
2023/10/05 04:33:59;;;;;;;13.88;2.88;;;13.80;99.90;;;;;;4957889;28;20545;-58
2023/10/05 04:36:25;;;;;;;20.08;3.88;;;13.80;99.90;;;;;;4959792;28;20042;-57
2023/10/05 04:38:54;;;;;;;15.68;3.17;;;13.80;99.90;;;;;;4957650;28;20505;-58
2023/10/05 04:41:28;;;;;;;12.68;2.92;;;13.80;99.90;;;;;;4959847;28;20039;-58
2023/10/05 04:44:12;;;;;;;15.88;3.40;;;13.80;99.90;;;;;;4960009;28;20039;-59
2023/10/05 04:46:47;;;;;;;13.82;3.53;;;13.80;99.90;;;;;;4962530;28;20483;-58
2023/10/05 04:49:16;;;;;;;16.88;3.40;;;13.80;99.90;;;;;;4935764;28;20039;-60
2023/10/05 04:51:43;;;;;;;14.23;3.10;;;13.80;99.90;;;;;;4955785;28;20046;-58
2023/10/05 04:54:17;;;;;;;20.63;3.80;;;13.80;99.90;;;;;;4952730;28;20043;-56
2023/10/05 04:56:43;;;;;;;13.70;3.60;;;13.80;99.90;;;;;;4957226;28;20043;-57
2023/10/05 05:07:02;;;;;;;19.85;3.40;;;13.80;99.90;;;;;;4963874;28;20034;-57
2023/10/05 05:09:34;;;;;;;13.10;3.63;;;13.90;99.90;;;;;;4959139;28;20038;-58
2023/10/05 05:12:04;;;;;;;15.63;3.35;;;13.80;99.90;;;;;;4955693;28;20679;-57
2023/10/05 05:14:44;;;;;;;21.55;3.83;;;13.90;99.90;;;;;;4958873;28;20050;-59
2023/10/05 05:17:24;;;;;;;13.05;3.13;;;13.90;99.90;;;;;;4958508;28;20459;-57
2023/10/05 05:19:52;;;;;;;18.70;3.10;;;13.90;99.90;;;;;;4956102;28;20046;-59
2023/10/05 05:22:18;;;;;;;19.45;3.13;;;13.90;99.90;;;;;;4958770;28;20038;-56
2023/10/05 05:24:45;;;;;;;21.25;4.15;;;13.90;99.90;;;;;;4953970;28;20046;-57
2023/10/05 05:27:21;;;;;;;22.40;3.65;;;13.90;99.90;;;;;;4958274;28;20485;-57
2023/10/05 05:29:53;;;;;;;17.10;3.72;;;13.90;99.90;;;;;;4957928;28;20126;-59
2023/10/05 05:32:19;;;;;;;17.75;3.08;;;13.90;99.90;;;;;;4944077;28;20586;-56
2023/10/05 05:34:49;;;;;;;18.52;3.67;;;13.90;99.90;;;;;;4920940;29;20115;-58
2023/10/05 05:37:28;;;;;;;21.40;4.13;;;13.90;99.90;;;;;;4943138;28;20578;-57
2023/10/05 05:39:54;;;;;;;20.27;3.90;;;13.90;99.90;;;;;;4934797;28;20051;-56
2023/10/05 05:42:22;;;;;;;21.58;4.07;;;13.90;99.90;;;;;;4939210;28;20035;-58
2023/10/05 05:44:48;;;;;;;13.20;3.35;;;14.00;99.90;;;;;;4937430;28;20358;-58
2023/10/05 05:47:14;;;;;;;20.45;3.72;;;13.90;99.90;;;;;;4942758;28;20475;-57
2023/10/05 05:49:46;;;;;;;20.25;4.22;;;13.90;99.90;;;;;;4943503;28;20050;-59
2023/10/05 05:52:13;;;;;;;14.50;3.95;;;14.00;99.90;;;;;;4940762;28;20389;-58
2023/10/05 05:54:41;;;;;;;18.02;3.38;;;14.00;99.90;;;;;;4941877;28;20085;-58
2023/10/05 05:57:07;;;;;;;15.63;3.30;;;14.00;99.90;;;;;;4941260;28;20050;-57
2023/10/05 05:59:34;;;;;;;11.90;3.47;;;14.00;99.90;;;;;;4944207;28;20448;-57
2023/10/05 06:02:03;;;;;;;15.50;3.22;;;14.00;99.90;;;;;;4914522;28;20503;-59
2023/10/05 06:04:32;;;;;;;16.40;3.15;;;14.10;99.90;;;;;;4944146;29;20569;-58
2023/10/05 06:07:04;;;;;;;16.00;3.22;;;14.10;99.90;;;;;;4932396;28;20538;-59
2023/10/05 06:09:33;;;;;;;16.27;3.33;;;14.10;99.90;;;;;;4921910;29;20046;-57
2023/10/05 06:12:03;;;;;;;18.50;3.78;;;14.20;99.90;;;;;;4917931;28;20403;-58
2023/10/05 06:14:31;;;;;;;14.63;3.20;;;14.20;99.90;;;;;;4950393;28;20129;-59
2023/10/05 06:16:58;;;;;;;14.05;3.20;;;14.30;99.90;;;;;;4932226;28;20487;-59
2023/10/05 06:19:24;;;;;;;19.30;3.13;;;14.20;99.90;;;;;;4939244;28;20734;-59
2023/10/05 06:21:49;;;;;;;17.80;3.63;;;14.30;99.90;;;;;;4925044;29;20039;-60
2023/10/05 06:24:15;;;;;;;23.35;3.47;;;14.30;99.90;;;;;;4944324;28;20039;-58
2023/10/05 06:26:41;;;;;;;15.02;3.53;;;14.30;99.90;;;;;;4959959;28;20039;-61
2023/10/05 06:29:08;;;;;;;14.35;3.28;;;14.40;99.90;;;;;;4941638;29;20203;-58
2023/10/05 06:31:37;;;;;;;22.67;3.72;;;14.40;99.90;;;;;;4937877;28;20062;-58
2023/10/05 06:34:09;;;;;;;21.58;3.97;;;14.50;99.90;;;;;;4956139;28;20063;-59
2023/10/05 06:36:38;;;;;;;15.88;3.38;;;14.50;99.90;;;;;;4920175;28;20178;-59
2023/10/05 06:39:14;;;;;;;15.55;3.40;;;14.50;99.90;;;;;;4940895;28;20143;-59
2023/10/05 06:41:43;;;;;;;19.50;3.97;;;14.50;99.90;;;;;;4911731;28;20580;-60
2023/10/05 06:44:10;;;;;;;13.95;3.63;;;14.50;99.90;;;;;;4945725;28;20094;-59
2023/10/05 06:46:39;;;;;;;14.10;3.30;;;14.60;99.90;;;;;;4924197;29;20078;-60
2023/10/05 06:49:06;;;;;;;18.70;3.60;;;14.60;99.90;;;;;;4916785;28;20051;-60
2023/10/05 06:51:31;;;;;;;17.08;3.60;;;14.60;99.90;;;;;;4941944;28;20069;-59
2023/10/05 06:53:57;;;;;;;16.02;3.28;;;14.70;99.90;;;;;;4943213;28;20090;-60
2023/10/05 06:56:24;;;;;;;18.00;3.92;;;14.70;99.90;;;;;;4943147;28;20112;-60
2023/10/05 06:58:50;;;;;;;15.13;3.33;;;14.70;99.90;;;;;;4951480;28;20047;-60
2023/10/05 07:01:20;;;;;;;20.80;3.55;;;14.80;99.90;;;;;;4927039;28;20047;-59
2023/10/05 07:03:52;;;;;;;14.48;3.42;;;14.80;99.90;;;;;;4933029;28;20579;-60
2023/10/05 07:06:19;;;;;;;15.15;3.28;;;14.90;99.90;;;;;;4936407;28;20043;-60
2023/10/05 07:08:46;;;;;;;19.08;3.80;;;14.90;99.90;;;;;;4942652;28;20130;-60
2023/10/05 07:11:12;;;;;;;14.07;3.17;;;14.90;99.90;;;;;;4944794;28;20094;-59
2023/10/05 07:13:37;;;;;;;18.77;3.55;;;15.00;99.90;;;;;;4936311;28;20125;-60
2023/10/05 07:16:05;;;;;;;18.33;3.88;;;15.00;99.90;;;;;;4932814;28;20050;-60
2023/10/05 07:18:31;;;;;;;21.65;3.35;;;15.00;99.90;;;;;;4935290;28;20102;-59
2023/10/05 07:20:57;;;;;;;21.20;3.88;;;15.10;99.90;;;;;;4935109;28;20086;-59
2023/10/05 07:23:23;;;;;;;18.20;4.28;;;15.10;99.90;;;;;;4934038;28;20584;-62
2023/10/05 07:25:49;;;;;;;16.25;3.80;;;15.20;99.90;;;;;;4922411;28;20142;-58
2023/10/05 07:28:15;;;;;;;16.77;3.40;;;15.20;99.90;;;;;;4935577;28;20073;-59
2023/10/05 07:30:48;;;;;;;17.23;3.38;;;15.20;99.90;;;;;;4915408;28;20055;-60
2023/10/05 07:33:14;;;;;;;20.58;4.03;;;15.30;99.90;;;;;;4934291;28;20043;-60
2023/10/05 07:35:40;;;;;;;18.50;4.15;;;15.30;99.90;;;;;;4935792;28;20786;-58
2023/10/05 07:38:11;;;;;;;13.65;3.13;;;15.30;99.90;;;;;;4938840;28;20039;-60
2023/10/05 07:40:37;;;;;;;15.52;3.55;;;15.30;99.90;;;;;;4920801;28;20051;-59
2023/10/05 07:43:06;;;;;;;11.20;2.97;;;15.30;99.90;;;;;;4935502;28;20089;-58
2023/10/05 07:45:32;;;;;;;13.02;2.80;;;15.30;99.90;;;;;;4934613;28;20038;-60
2023/10/05 07:47:59;;;;;;;15.63;2.90;;;15.30;99.90;;;;;;4933142;28;20050;-60
2023/10/05 07:50:28;;;;;;;11.30;3.33;;;15.30;99.90;;;;;;4937337;28;20054;-59
2023/10/05 07:52:57;;;;;;;12.10;3.03;;;15.20;99.90;;;;;;4936160;28;20116;-59
2023/10/05 07:55:23;;;;;;;9.73;2.72;;;15.30;99.90;;;;;;4924342;28;20830;-60
2023/10/05 07:57:51;;;;;;;14.40;2.90;;;15.20;99.90;;;;;;4921113;28;20135;-58
2023/10/05 08:00:20;;;;;;;11.48;3.05;;;15.20;99.90;;;;;;4931645;28;20102;-60
2023/10/05 08:02:46;;;;;;;12.45;2.97;;;15.20;99.90;;;;;;4932023;28;20047;-59
2023/10/05 08:05:12;;;;;;;14.45;2.97;;;15.10;99.90;;;;;;4917316;28;20053;-59
2023/10/05 08:07:39;;;;;;;12.43;3.25;;;15.10;99.90;;;;;;4937139;28;20392;-60
2023/10/05 08:10:21;;;;;;;14.15;3.10;;;15.10;99.90;;;;;;4917308;28;20039;-60
2023/10/05 08:12:50;;;;;;;14.35;3.38;;;15.10;99.90;;;;;;4937022;28;20043;-60
2023/10/05 08:15:18;;;;;;;12.20;3.55;;;15.10;99.90;;;;;;4935120;28;20150;-60
2023/10/05 08:17:46;;;;;;;12.23;3.05;;;15.10;99.90;;;;;;4918941;28;20130;-57
2023/10/05 08:20:11;;;;;;;15.40;3.67;;;15.10;99.90;;;;;;4935733;28;20083;-58
2023/10/05 08:22:37;;;;;;;16.17;3.30;;;15.10;99.90;;;;;;4933798;28;20126;-60
2023/10/05 08:25:11;;;;;;;14.57;3.17;;;15.10;99.90;;;;;;4934761;28;20598;-59
2023/10/05 08:27:38;;;;;;;16.88;3.58;;;15.20;99.90;;;;;;4918060;28;20053;-60
2023/10/05 08:30:07;;;;;;;13.45;3.33;;;15.20;99.90;;;;;;4916852;28;20046;-58
2023/10/05 08:32:33;;;;;;;14.45;3.85;;;15.20;99.90;;;;;;4935320;28;20330;-58
2023/10/05 08:35:07;;;;;;;14.27;3.53;;;15.20;99.90;;;;;;4935122;28;20047;-60
2023/10/05 08:37:34;;;;;;;15.75;3.60;;;15.20;99.90;;;;;;4931366;28;20066;-59
2023/10/05 08:40:00;;;;;;;11.02;3.53;;;15.20;99.90;;;;;;4933474;28;20096;-59
2023/10/05 08:42:27;;;;;;;22.92;4.25;;;15.20;99.90;;;;;;4933244;28;20047;-58
2023/10/05 08:44:53;;;;;;;13.30;3.80;;;15.20;99.90;;;;;;4931069;28;20066;-60
2023/10/05 08:47:21;;;;;;;15.00;3.22;;;15.20;99.90;;;;;;4934757;28;20054;-58
2023/10/05 08:49:49;;;;;;;22.27;3.67;;;15.20;99.90;;;;;;4933227;28;20204;-60
2023/10/05 08:52:20;;;;;;;11.50;3.15;;;15.30;99.90;;;;;;4931015;28;20078;-59
2023/10/05 08:54:46;;;;;;;19.25;3.47;;;15.30;99.90;;;;;;4929669;28;20047;-60
2023/10/05 08:57:13;;;;;;;15.55;3.75;;;15.20;99.90;;;;;;4926200;28;20058;-58
2023/10/05 08:59:45;;;;;;;17.38;3.50;;;15.30;99.90;;;;;;4929494;28;20040;-59
2023/10/05 09:02:18;;;;;;;15.00;4.00;;;15.30;99.90;;;;;;4933362;28;20043;-60
2023/10/05 09:04:59;;;;;;;16.92;4.68;;;15.30;99.90;;;;;;4935488;28;20500;-60
2023/10/05 09:07:35;;;;;;;14.45;3.75;;;15.40;99.90;;;;;;4933487;28;20046;-60
2023/10/05 09:10:05;;;;;;;14.43;3.35;;;15.40;99.90;;;;;;4935077;28;20078;-56
2023/10/05 09:12:35;;;;;;;15.85;3.75;;;15.40;99.90;;;;;;4932771;28;20570;-59
2023/10/05 09:15:28;;;;;;;14.15;4.38;;;15.40;99.90;;;;;;4927720;28;20109;-58
2023/10/05 09:20:30;;;;;;;9.90;3.70;;;15.30;99.90;;;;;;4935469;28;20051;-60
2023/10/05 09:22:57;;;;;;;15.40;3.60;;;15.30;99.90;;;;;;4934707;28;20055;-59
2023/10/05 09:25:27;;;;;;;9.75;3.42;;;15.30;99.90;;;;;;4933014;28;20482;-60
2023/10/05 09:28:08;;;;;;;10.52;3.10;;;15.30;99.90;;;;;;4935344;29;20051;-60
2023/10/05 09:30:35;;;;;;;12.07;2.95;;;15.40;99.90;;;;;;4932174;28;20491;-59
2023/10/05 09:33:10;;;;;;;12.57;3.22;;;15.40;99.90;;;;;;4912027;28;20055;-60
2023/10/05 09:35:36;;;;;;;9.05;2.80;;;15.40;99.90;;;;;;4937255;28;20047;-59
2023/10/05 09:38:05;;;;;;;10.73;3.08;;;15.40;99.90;;;;;;4934007;28;20110;-60
2023/10/05 09:40:33;;;;;;;12.70;2.92;;;15.50;99.90;;;;;;4933667;28;20043;-58
2023/10/05 09:43:05;;;;;;;14.20;3.40;;;15.50;99.90;;;;;;4929847;28;20062;-58
2023/10/05 09:45:33;;;;;;;11.27;3.15;;;15.60;99.90;;;;;;4931420;28;20094;-60
2023/10/05 09:48:01;;;;;;;6.88;2.78;;;15.70;99.90;;;;;;4934312;28;20050;-59
2023/10/05 09:50:29;;;;;;;11.27;3.20;;;15.80;99.90;;;;;;4937605;28;20184;-60
2023/10/05 09:52:59;;;;;;;14.65;4.10;;;15.90;99.90;;;;;;4936607;28;20051;-59
2023/10/05 09:55:25;;;;;;;13.18;3.47;;;16.00;99.90;;;;;;4935731;28;20051;-59
2023/10/05 09:57:51;;;;;;;10.98;3.45;;;16.10;99.90;;;;;;4936078;28;20104;-59
2023/10/05 10:03:01;;;;;;;12.32;3.58;;;16.20;99.90;;;;;;4934722;28;20118;-59
2023/10/05 10:05:36;;;;;;;11.45;3.67;;;16.30;99.90;;;;;;4939181;28;20182;-58
2023/10/05 10:08:12;;;;;;;14.70;3.55;;;16.40;99.90;;;;;;4933551;28;20032;-59
2023/10/05 10:10:51;;;;;;;14.15;3.30;;;16.50;99.90;;;;;;4922420;28;20062;-59
2023/10/05 10:13:21;;;;;;;11.98;3.85;;;16.60;99.90;;;;;;4934277;28;20581;-59
2023/10/05 10:15:53;;;;;;;9.30;3.50;;;16.70;99.90;;;;;;4930290;28;20039;-60
2023/10/05 10:18:30;;;;;;;10.15;3.58;;;16.80;99.90;;;;;;4933269;28;20046;-60
2023/10/05 10:20:57;;;;;;;12.52;3.08;;;16.80;99.90;;;;;;4914282;29;20819;-59
2023/10/05 10:23:27;;;;;;;15.95;2.90;;;16.90;99.90;;;;;;4936985;28;20050;-58
2023/10/05 10:26:16;;;;;;;16.42;3.50;;;17.00;99.90;;;;;;4950695;28;20054;-61
2023/10/05 10:31:42;;;;;;;16.25;3.50;;;17.10;99.90;;;;;;4945080;28;20047;-60
2023/10/05 10:34:20;;;;;;;9.63;3.10;;;17.10;99.90;;;;;;4930160;28;20534;-59
2023/10/05 10:36:51;;;;;;;10.38;2.78;;;17.20;99.90;;;;;;4945346;29;20039;-61
2023/10/05 10:39:27;;;;;;;18.45;3.30;;;17.20;99.90;;;;;;4942176;28;20047;-60
2023/10/05 10:42:00;;;;;;;14.43;2.92;;;17.20;99.90;;;;;;4947709;28;20154;-61
2023/10/05 10:44:26;;;;;;;11.65;3.22;;;17.20;99.90;;;;;;4960450;28;20039;-61
2023/10/05 10:47:11;;;;;;;16.52;3.80;;;17.30;99.90;;;;;;4943555;28;20483;-61
2023/10/05 10:49:39;;;;;;;13.93;3.45;;;17.40;99.90;;;;;;4944692;29;20071;-61
2023/10/05 10:52:10;;;;;;;12.48;2.50;;;17.40;99.90;;;;;;4945304;29;20055;-60
2023/10/05 10:54:45;;;;;;;15.73;3.05;;;17.40;99.90;;;;;;4944288;28;20036;-61
2023/10/05 10:57:20;;;;;;;9.43;2.45;;;17.30;99.90;;;;;;4944044;28;20654;-60
2023/10/05 10:59:46;;;;;;;8.25;2.47;;;17.20;99.90;;;;;;4934238;28;20506;-59
2023/10/05 11:02:19;;;;;;;9.38;2.50;;;17.00;99.90;;;;;;4939695;29;20043;-58
2023/10/05 11:04:47;;;;;;;7.00;2.38;;;16.90;99.90;;;;;;4939470;28;20043;-61
2023/10/05 11:07:13;;;;;;;10.07;2.60;;;16.80;99.90;;;;;;4919331;28;20175;-61
2023/10/05 11:09:49;;;;;;;7.85;2.55;;;16.80;99.90;;;;;;4938700;28;20075;-61
2023/10/05 11:12:21;;;;;;;10.07;3.05;;;16.90;99.90;;;;;;4946037;28;20047;-59
2023/10/05 11:14:47;;;;;;;8.32;2.75;;;16.90;99.90;;;;;;4947236;28;20066;-61
2023/10/05 11:17:31;;;;;;;9.15;3.15;;;16.90;99.90;;;;;;4945099;28;20082;-61
2023/10/05 11:20:12;;;;;;;12.70;3.05;;;17.00;99.90;;;;;;4929125;29;20055;-60
2023/10/05 11:22:42;;;;;;;13.02;4.32;;;17.10;99.90;;;;;;4943841;28;20047;-61
2023/10/05 11:25:23;;;;;;;11.43;3.03;;;17.20;99.90;;;;;;4936109;28;20058;-60
2023/10/05 11:27:56;;;;;;;13.05;2.83;;;17.40;99.90;;;;;;4944259;29;20467;-61
2023/10/05 11:30:45;;;;;;;13.10;3.10;;;17.60;99.90;;;;;;4942798;28;20499;-60
2023/10/05 11:33:17;;;;;;;7.75;2.63;;;17.80;99.90;;;;;;4945128;28;20060;-60
2023/10/05 11:35:54;;;;;;;7.43;2.00;;;17.90;99.90;;;;;;4926351;29;20058;-61
2023/10/05 11:38:21;;;;;;;6.68;1.90;;;17.90;99.90;;;;;;4936488;28;20078;-61
2023/10/05 11:40:50;;;;;;;3.63;1.48;;;17.80;99.90;;;;;;4918359;28;20400;-60
2023/10/05 11:43:20;;;;;;;7.80;2.03;;;17.70;99.90;;;;;;4942349;28;20593;-60
2023/10/05 11:45:56;;;;;;;7.57;2.47;;;17.70;99.90;;;;;;4942754;28;20038;-60
2023/10/05 11:48:27;;;;;;;7.05;2.22;;;17.80;99.90;;;;;;4944680;28;20397;-58
2023/10/05 11:50:52;;;;;;;8.30;2.10;;;17.90;99.90;;;;;;4947119;29;20046;-61
2023/10/05 11:53:21;;;;;;;8.48;1.98;;;17.80;99.90;;;;;;4924864;28;20051;-59
2023/10/05 11:55:49;;;;;;;6.63;2.17;;;17.80;99.90;;;;;;4933875;28;20497;-61
2023/10/05 11:58:17;;;;;;;5.03;1.75;;;17.70;99.90;;;;;;4944949;28;20043;-61
2023/10/05 12:00:44;;;;;;;7.40;2.20;;;17.70;99.90;;;;;;4921672;28;20280;-61
2023/10/05 12:03:11;;;;;;;7.43;1.90;;;17.70;99.90;;;;;;4944501;28;20047;-59
2023/10/05 12:05:38;;;;;;;7.97;1.90;;;17.60;99.90;;;;;;4947236;28;20452;-57
2023/10/05 12:08:05;;;;;;;5.80;1.83;;;17.60;99.90;;;;;;4943388;28;20394;-60
2023/10/05 12:10:35;;;;;;;8.00;2.60;;;17.60;99.90;;;;;;4958719;28;20039;-61
2023/10/05 12:13:02;;;;;;;7.78;2.20;;;17.50;99.90;;;;;;4936841;28;21018;-60
2023/10/05 12:15:28;;;;;;;6.40;2.22;;;17.60;99.90;;;;;;4933063;28;20050;-60
2023/10/05 12:17:54;;;;;;;6.95;2.40;;;17.60;99.90;;;;;;4953707;28;20043;-61
2023/10/05 12:20:21;;;;;;;11.60;2.65;;;17.80;99.90;;;;;;4922570;28;20047;-61
2023/10/05 12:22:49;;;;;;;10.23;2.10;;;17.90;99.90;;;;;;4934597;28;20526;-59
2023/10/05 12:25:24;;;;;;;7.05;2.35;;;18.00;99.90;;;;;;4899566;28;20193;-59
2023/10/05 12:27:50;;;;;;;5.57;1.90;;;18.20;99.90;;;;;;4913483;28;20047;-60
2023/10/05 12:30:16;;;;;;;8.65;2.63;;;18.30;99.90;;;;;;4937277;28;20155;-61
2023/10/05 12:32:42;;;;;;;10.73;2.25;;;18.50;99.90;;;;;;4935814;28;20067;-61
2023/10/05 12:35:16;;;;;;;8.73;2.80;;;18.50;99.90;;;;;;4936501;28;20082;-61
2023/10/05 12:37:45;;;;;;;7.88;2.17;;;18.60;99.90;;;;;;4922002;28;20042;-61
2023/10/05 12:40:33;;;;;;;10.90;2.35;;;18.60;99.90;;;;;;4937263;28;20042;-62
2023/10/05 12:42:59;;;;;;;4.93;1.85;;;18.70;99.90;;;;;;4935127;28;20094;-60
2023/10/05 12:45:25;;;;;;;5.10;1.60;;;18.70;99.90;;;;;;4934762;28;20042;-61
2023/10/05 12:47:54;;;;;;;3.50;1.58;;;18.50;99.90;;;;;;4945338;29;20582;-60
2023/10/05 12:50:22;;;;;;;8.00;2.45;;;18.30;99.90;;;;;;4939661;28;20043;-61
2023/10/05 12:52:51;;;;;;;7.05;2.25;;;18.10;99.90;;;;;;4941239;28;20042;-61
2023/10/05 12:55:22;;;;;;;8.75;2.80;;;17.90;99.90;;;;;;4939712;28;20057;-60
2023/10/05 12:57:50;;;;;;;11.05;3.30;;;17.70;99.90;;;;;;4942382;28;20359;-60
2023/10/05 13:00:22;;;;;;;11.80;4.25;;;17.60;99.90;;;;;;4942873;28;20165;-60
2023/10/05 13:03:00;;;;;;;8.65;2.40;;;17.50;99.90;;;;;;4941645;28;20039;-61
2023/10/05 13:05:39;;;;;;;7.43;2.10;;;17.40;99.90;;;;;;4944675;28;20095;-61
2023/10/05 13:08:10;;;;;;;8.23;1.95;;;17.40;99.90;;;;;;4936347;28;20051;-61
2023/10/05 13:10:39;;;;;;;9.80;2.50;;;17.40;99.90;;;;;;4938187;28;20546;-61
2023/10/05 13:13:17;;;;;;;9.48;2.95;;;17.40;99.90;;;;;;4937638;28;20051;-61
2023/10/05 13:15:44;;;;;;;9.10;2.35;;;17.40;99.90;;;;;;4935840;28;20039;-61
2023/10/05 13:18:19;;;;;;;6.93;2.35;;;17.50;99.90;;;;;;4937688;28;20043;-61
2023/10/05 13:20:47;;;;;;;4.25;1.83;;;17.60;99.90;;;;;;4935461;28;20039;-61
2023/10/05 13:23:14;;;;;;;15.40;2.80;;;17.90;99.90;;;;;;4924080;29;20035;-61
2023/10/05 13:25:43;;;;;;;8.85;2.17;;;18.10;99.90;;;;;;4943617;28;20043;-61
2023/10/05 13:28:12;;;;;;;7.32;1.80;;;18.30;99.90;;;;;;4935552;28;20522;-60